Susan L Stall — WDF4893 — position and weather

sailwx.info

Track history (hours):
 
Tides and Currents Weather Stations Pressure Air Temp Water Temp Dewpoint Dewpoint Depression Visibility Wind Speed Wind Dir Waves Ship Positions

Susan L Stall

Owner: Canal Barge Company, Inc., Belle Chasse, LA. More information available from US FCC via Universal Licensing System and Coast Guard Vessel Documentation Center.

Last reported at 2018-Jul-07 11:56 UTC. Time now 2018-Jul-16 14:44 UTC.
Position N 32°40' W 091°07'.
Warning: this ship's position is 9 days out of date.

Length 46 m.

Type: Towing. MMSI: 367456960.

Date/timePositionNaut miles runAvg speedWind from/ knotsBaromVisibWave heightAir tempDewpointWater temp
2018-Jul-07 11:56N 32°40' W 091°07'4 4.2
2018-Jul-07 11:00N 32°37' W 091°09'2 4.4
2018-Jul-07 10:30N 32°35' W 091°08'2 4.5
2018-Jul-07 09:58N 32°33' W 091°06'3 4.5
2018-Jul-07 09:16N 32°30' W 091°07'1 5.1
2018-Jul-07 09:00N 32°29' W 091°07'2 4.4
2018-Jul-07 08:30N 32°27' W 091°05'2 4.7
2018-Jul-07 08:00N 32°26' W 091°03'2 4.5
2018-Jul-07 07:30N 32°25' W 091°00'2 3.9
2018-Jul-07 07:00N 32°23' W 090°60'2 4.1
2018-Jul-07 06:30N 32°21' W 091°00'2 4.1
2018-Jul-07 06:00N 32°21' W 090°58'2 4.4
2018-Jul-07 05:30N 32°21' W 090°55'2 3.7
2018-Jul-07 05:00N 32°19' W 090°55'1 2.6
2018-Jul-07 04:30N 32°18' W 090°56'2 4.0
2018-Jul-07 04:00N 32°16' W 090°57'2 4.5
2018-Jul-07 03:30N 32°14' W 090°59'3 5.1
2018-Jul-07 03:00N 32°12' W 090°59'2 4.2
2018-Jul-07 02:30N 32°10' W 090°60'2 4.6
2018-Jul-07 01:58N 32°08' W 091°01'2 4.0
2018-Jul-07 01:28N 32°07' W 091°03'3 4.8
2018-Jul-07 00:52N 32°08' W 091°06'1 3.9
2018-Jul-07 00:30N 32°06' W 091°06'4 5.0
2018-Jul-06 23:47N 32°03' W 091°04'5 3.8
2018-Jul-06 22:22N 31°59' W 091°08'3 4.6
2018-Jul-06 21:47N 31°58' W 091°11'  
2018-Jul-03 15:38N 31°60' W 091°05'110.2
2018-Jul-03 15:30N 32°01' W 091°04'5 8.5
2018-Jul-03 14:58N 32°06' W 091°05'2 5.3
2018-Jul-03 14:30N 32°08' W 091°04'4 7.7
2018-Jul-03 14:00N 32°09' W 091°00'5 9.6
2018-Jul-03 13:30N 32°14' W 090°59'5 9.7
2018-Jul-03 13:00N 32°18' W 090°55'3 5.9
2018-Jul-03 12:30N 32°21' W 090°56'4 7.7
2018-Jul-03 12:00N 32°23' W 090°60'4 8.0
2018-Jul-03 11:30N 32°26' W 091°03'5 9.6
2018-Jul-03 11:00N 32°29' W 091°07'5 9.3
2018-Jul-03 10:27N 32°34' W 091°07'4 9.6
2018-Jul-03 10:00N 32°38' W 091°09'  
Track history (hours):
 
Tides and Currents Weather Stations Pressure Air Temp Water Temp Dewpoint Dewpoint Depression Visibility Wind Speed Wind Dir Waves Ship Positions

Susan L Stall

Owner: Canal Barge Company, Inc., Belle Chasse, LA. More information available from US FCC via Universal Licensing System and Coast Guard Vessel Documentation Center.

Last reported at 2018-Jul-07 11:56 UTC. Time now 2018-Jul-16 14:44 UTC.
Position N 32°40' W 091°07'.
Warning: this ship's position is 9 days out of date.

Length 46 m.

Type: Towing. MMSI: 367456960.

Date/timePositionNaut miles runAvg speedWind from/ knotsBaromVisibWave heightAir tempDewpointWater temp
2018-Jul-07 11:56N 32°40' W 091°07'4 4.2
2018-Jul-07 11:00N 32°37' W 091°09'2 4.4
2018-Jul-07 10:30N 32°35' W 091°08'2 4.5
2018-Jul-07 09:58N 32°33' W 091°06'3 4.5
2018-Jul-07 09:16N 32°30' W 091°07'1 5.1
2018-Jul-07 09:00N 32°29' W 091°07'2 4.4
2018-Jul-07 08:30N 32°27' W 091°05'2 4.7
2018-Jul-07 08:00N 32°26' W 091°03'2 4.5
2018-Jul-07 07:30N 32°25' W 091°00'2 3.9
2018-Jul-07 07:00N 32°23' W 090°60'2 4.1
2018-Jul-07 06:30N 32°21' W 091°00'2 4.1
2018-Jul-07 06:00N 32°21' W 090°58'2 4.4
2018-Jul-07 05:30N 32°21' W 090°55'2 3.7
2018-Jul-07 05:00N 32°19' W 090°55'1 2.6
2018-Jul-07 04:30N 32°18' W 090°56'2 4.0
2018-Jul-07 04:00N 32°16' W 090°57'2 4.5
2018-Jul-07 03:30N 32°14' W 090°59'3 5.1
2018-Jul-07 03:00N 32°12' W 090°59'2 4.2
2018-Jul-07 02:30N 32°10' W 090°60'2 4.6
2018-Jul-07 01:58N 32°08' W 091°01'2 4.0
2018-Jul-07 01:28N 32°07' W 091°03'3 4.8
2018-Jul-07 00:52N 32°08' W 091°06'1 3.9
2018-Jul-07 00:30N 32°06' W 091°06'4 5.0
2018-Jul-06 23:47N 32°03' W 091°04'5 3.8
2018-Jul-06 22:22N 31°59' W 091°08'3 4.6
2018-Jul-06 21:47N 31°58' W 091°11'  
2018-Jul-03 15:38N 31°60' W 091°05'110.2
2018-Jul-03 15:30N 32°01' W 091°04'5 8.5
2018-Jul-03 14:58N 32°06' W 091°05'2 5.3
2018-Jul-03 14:30N 32°08' W 091°04'4 7.7
2018-Jul-03 14:00N 32°09' W 091°00'5 9.6
2018-Jul-03 13:30N 32°14' W 090°59'5 9.7
2018-Jul-03 13:00N 32°18' W 090°55'3 5.9
2018-Jul-03 12:30N 32°21' W 090°56'4 7.7
2018-Jul-03 12:00N 32°23' W 090°60'4 8.0
2018-Jul-03 11:30N 32°26' W 091°03'5 9.6
2018-Jul-03 11:00N 32°29' W 091°07'5 9.3
2018-Jul-03 10:27N 32°34' W 091°07'4 9.6
2018-Jul-03 10:00N 32°38' W 091°09'  

Dump ship's entire track history